ADDS METAR Data INFO
IDs: Format: Raw Decoded Include TAF

Data at: 0852 UTC 22 Feb 2018

KCVH 220835Z AUTO 00000KT 10SM CLR 02/M03 A3024 RMK A01
KCVH 220815Z AUTO 00000KT 10SM CLR 02/M03 A3024 RMK A01
KCVH 220755Z AUTO 00000KT 10SM CLR 02/M02 A3024 RMK A01
KCVH 220735Z AUTO 00000KT 10SM CLR 03/M02 A3023 RMK A01
KCVH 220715Z AUTO 00000KT 10SM CLR 03/M02 A3022 RMK A01
KCVH 220655Z AUTO 00000KT 10SM CLR 04/M01 A3022 RMK A01
KCVH 220635Z AUTO 00000KT 10SM CLR 05/M01 A3022 RMK A01
KCVH 220615Z AUTO 15005KT 10SM CLR 03/M02 A3021 RMK A01
KCVH 220555Z AUTO 00000KT 10SM CLR 04/M00 A3021 RMK A01
KCVH 220535Z AUTO 09005KT 10SM CLR 05/00 A3022 RMK A01
KCVH 220515Z AUTO 00000KT 10SM CLR 06/02 A3022 RMK A01
KCVH 220455Z AUTO 00000KT 10SM CLR 08/03 A3021 RMK A01
KCVH 220435Z AUTO 00000KT 10SM CLR 07/02 A3021 RMK A01
KCVH 220415Z AUTO 00000KT 10SM CLR 08/03 A3020 RMK A01
KCVH 220355Z AUTO VRB05KT 10SM CLR 08/03 A3019 RMK A01
KCVH 220035Z AUTO 27012KT 10SM FEW065 14/M01 A3015 RMK A01
KCVH 220015Z AUTO 26011KT 10SM CLR 15/M01 A3015 RMK A01
KCVH 212355Z AUTO 28011KT 10SM CLR 15/M01 A3015 RMK A01
KCVH 212335Z AUTO 35009KT 10SM CLR 15/M03 A3015 RMK A01
KCVH 212315Z AUTO 30007KT 10SM CLR 15/M03 A3015 RMK A01
KCVH 212255Z AUTO 30006G11KT 10SM CLR 15/M04 A3015 RMK A01
KCVH 212235Z AUTO 31008KT 10SM CLR 15/M04 A3015 RMK A01
KCVH 212215Z AUTO 00000KT 10SM CLR 15/M05 A3015 RMK A01
KCVH 212155Z AUTO VRB04KT 10SM CLR 15/M04 A3016 RMK A01
KCVH 212135Z AUTO 00000KT 10SM CLR 14/M04 A3016 RMK A01
KCVH 212115Z AUTO VRB04KT 10SM CLR 14/M04 A3017 RMK A01
KCVH 212055Z AUTO 00000KT 10SM CLR 13/M04 A3017 RMK A01
KCVH 212035Z AUTO 28004KT 10SM CLR 13/M03 A3018 RMK A01
KCVH 212015Z AUTO 00000KT 10SM CLR 13/M04 A3019 RMK A01
KCVH 211955Z AUTO 00000KT 10SM CLR 12/M05 A3020 RMK A01
KCVH 211935Z AUTO 29004KT 10SM CLR 11/M04 A3021 RMK A01
KCVH 211915Z AUTO VRB03KT 10SM CLR 11/M02 A3021 RMK A01
KCVH 211855Z AUTO 00000KT 10SM CLR 10/M01 A3021 RMK A01
KCVH 211835Z AUTO 00000KT 10SM CLR 09/M01 A3021 RMK A01
KCVH 211815Z AUTO 00000KT 10SM CLR 08/M02 A3021 RMK A01
KCVH 211755Z AUTO 00000KT 10SM CLR 07/M02 A3022 RMK A01
KCVH 211735Z AUTO 00000KT 9SM CLR 06/M02 A3022 RMK A01
KCVH 211715Z AUTO 00000KT 10SM CLR 05/M02 A3022 RMK A01
KCVH 211655Z AUTO 00000KT 10SM CLR 04/M02 A3022 RMK A01
KCVH 211635Z AUTO 00000KT 10SM CLR 03/M03 A3022 RMK A01
KCVH 211615Z AUTO 06005KT 10SM CLR 02/M03 A3022 RMK A01
KCVH 211555Z AUTO 00000KT 10SM CLR 01/M03 A3022 RMK A01
KCVH 211535Z AUTO 00000KT 10SM CLR M00/M04 A3022 RMK A01
KCVH 211515Z AUTO 00000KT 10SM CLR M01/M04 A3022 RMK A01
KCVH 211455Z AUTO 00000KT 10SM CLR M02/M05 A3022 RMK A01
KCVH 211435Z AUTO 05005KT 10SM CLR M01/M05 A3021 RMK A01
KCVH 211415Z AUTO 08003KT 10SM CLR M01/M04 A3021 RMK A01
KCVH 211355Z AUTO 00000KT 10SM CLR M00/M04 A3021 RMK A01
KCVH 211335Z AUTO 00000KT 10SM FEW060 M00/M04 A3021 RMK A01
KCVH 211315Z AUTO 00000KT 10SM SCT060 M01/M04 A3021 RMK A01
KCVH 211255Z AUTO 04006KT 10SM CLR M00/M04 A3020 RMK A01
KCVH 211235Z AUTO 04004KT 10SM CLR 00/M04 A3020 RMK A01
KCVH 210735Z AUTO 14006KT 10SM CLR 01/M04 A3022 RMK A01
KCVH 210715Z AUTO 14003KT 10SM CLR 01/M05 A3023 RMK A01
KCVH 210655Z AUTO 00000KT 10SM CLR 03/M04 A3023 RMK A01
KCVH 210635Z AUTO 16004KT 10SM CLR 03/M04 A3023 RMK A01
KCVH 210615Z AUTO 00000KT 10SM CLR 04/M03 A3023 RMK A01
KCVH 210555Z AUTO 00000KT 10SM CLR 05/M03 A3023 RMK A01